Time;durP1;ratioP1;P1;durP2;ratioP2;P2;SDS_P1;SDS_P2;PMS_P1;PMS_P2;Temp;Humidity;BMP_temperature;BMP_pressure;BME280_temperature;BME280_humidity;BME280_pressure;Samples;Min_cycle;Max_cycle;Signal;HPM_P1;HPM_P2
2023/04/04 00:00:38;;;;;;;;;;;;;;;14.61;58.14;102747.50;1041856;28;1476;-65
2023/04/04 00:01:29;;;;;;;;;;;;;;;14.59;58.18;102741.34;1042423;28;1346;-65
2023/04/04 00:02:20;;;;;;;;;;;;;;;14.57;57.67;102735.19;1043723;28;642;-65
2023/04/04 00:03:10;;;;;;;;;;;;;;;14.54;58.33;102738.88;1042902;28;1321;-65
2023/04/04 00:04:01;;;;;;;;;;;;;;;14.50;58.18;102734.66;1043723;28;1316;-65
2023/04/04 00:04:52;;;;;;;;;;;;;;;14.49;58.63;102732.91;1041069;28;1453;-65
2023/04/04 00:05:44;;;;;;;;;;;;;;;14.52;58.09;102726.50;1044638;28;723;-65
2023/04/04 00:06:35;;;;;;;;;;;;;;;14.48;58.50;102732.97;1044591;28;999;-65
2023/04/04 00:07:26;;;;;;;;;;;;;;;14.49;57.87;102729.34;1041928;28;712;-65
2023/04/04 00:08:16;;;;;;;;;;;;;;;14.48;58.11;102731.16;1041613;28;609;-65
2023/04/04 00:09:07;;;;;;;;;;;;;;;14.44;58.78;102726.03;1044430;28;1014;-65
2023/04/04 00:09:57;;;;;;;;;;;;;;;14.47;58.68;102726.75;1043492;28;1967;-65
2023/04/04 00:10:47;;;;;;;;;;;;;;;14.48;58.54;102722.25;1040027;28;1380;-65
2023/04/04 00:11:38;;;;;;;;;;;;;;;14.51;58.07;102730.16;1044828;28;690;-65
2023/04/04 00:12:28;;;;;;;;;;;;;;;14.50;58.60;102726.59;1042660;28;1293;-65
2023/04/04 00:13:19;;;;;;;;;;;;;;;14.50;58.47;102728.41;1041840;28;1307;-65
2023/04/04 00:14:09;;;;;;;;;;;;;;;14.47;58.67;102723.19;1042214;28;1492;-65
2023/04/04 00:15:00;;;;;;;;;;;;;;;14.46;58.36;102724.16;1042507;28;1504;-65
2023/04/04 00:15:50;;;;;;;;;;;;;;;14.46;58.05;102713.41;1044068;28;658;-66
2023/04/04 00:16:41;;;;;;;;;;;;;;;14.45;58.42;102709.00;1045487;28;637;-65
2023/04/04 00:17:31;;;;;;;;;;;;;;;14.46;58.28;102708.03;1044801;28;693;-65
2023/04/04 00:18:21;;;;;;;;;;;;;;;14.48;58.30;102716.88;1044002;28;999;-64
2023/04/04 00:19:16;;;;;;;;;;;;;;;14.49;57.96;102710.56;1042101;28;653;-65
2023/04/04 00:20:08;;;;;;;;;;;;;;;14.50;58.02;102715.00;1042289;28;1439;-64
2023/04/04 00:20:58;;;;;;;;;;;;;;;14.48;57.56;102712.38;1042531;28;1421;-64
2023/04/04 00:21:49;;;;;;;;;;;;;;;14.47;58.54;102709.78;1043557;28;1446;-64
2023/04/04 00:22:40;;;;;;;;;;;;;;;14.43;58.13;102722.47;1042054;28;1313;-65
2023/04/04 00:23:30;;;;;;;;;;;;;;;14.44;57.98;102716.16;1044314;28;1432;-65
2023/04/04 00:24:20;;;;;;;;;;;;;;;14.41;58.86;102715.44;1041459;28;1566;-65
2023/04/04 00:25:11;;;;;;;;;;;;;;;14.42;58.83;102709.16;1041457;28;1271;-67
2023/04/04 00:26:01;;;;;;;;;;;;;;;14.42;58.56;102712.69;1040708;28;1402;-64
2023/04/04 00:26:52;;;;;;;;;;;;;;;14.43;57.83;102714.44;1043081;28;1451;-64
2023/04/04 00:27:42;;;;;;;;;;;;;;;14.45;57.98;102706.31;1043644;28;1400;-64
2023/04/04 00:28:33;;;;;;;;;;;;;;;14.45;58.51;102703.63;1043576;28;1451;-64
2023/04/04 00:29:23;;;;;;;;;;;;;;;14.43;58.06;102698.34;1044585;28;666;-64
2023/04/04 00:30:14;;;;;;;;;;;;;;;14.38;58.10;102699.47;1041872;28;1005;-64
2023/04/04 00:31:05;;;;;;;;;;;;;;;14.38;58.34;102703.03;1042305;28;1353;-65
2023/04/04 00:31:56;;;;;;;;;;;;;;;14.37;58.76;102692.38;1042523;28;1580;-64
2023/04/04 00:32:47;;;;;;;;;;;;;;;14.41;58.72;102699.34;1042267;28;1399;-64
2023/04/04 00:33:37;;;;;;;;;;;;;;;14.42;58.49;102691.25;1041188;28;1582;-64
2023/04/04 00:34:27;;;;;;;;;;;;;;;14.44;58.25;102697.41;1043335;28;1398;-64
2023/04/04 00:35:18;;;;;;;;;;;;;;;14.45;58.17;102703.63;1041193;28;720;-64
2023/04/04 00:36:08;;;;;;;;;;;;;;;14.43;58.16;102701.03;1042516;28;650;-64
2023/04/04 00:36:59;;;;;;;;;;;;;;;14.44;58.50;102699.22;1042280;28;657;-64
2023/04/04 00:37:49;;;;;;;;;;;;;;;14.38;58.03;102703.03;1040598;28;972;-64
2023/04/04 00:38:40;;;;;;;;;;;;;;;14.39;58.27;102699.41;1041179;28;663;-64
2023/04/04 00:39:31;;;;;;;;;;;;;;;14.41;58.10;102702.03;1041740;28;666;-64
2023/04/04 00:40:21;;;;;;;;;;;;;;;14.38;58.41;102712.88;1040725;28;785;-63
2023/04/04 00:41:12;;;;;;;;;;;;;;;14.38;58.83;102712.88;1040072;28;1478;-65
2023/04/04 00:42:03;;;;;;;;;;;;;;;14.35;58.36;102713.03;1040772;28;1377;-64
2023/04/04 00:42:53;;;;;;;;;;;;;;;14.38;58.71;102712.88;1043397;28;1305;-64
2023/04/04 00:43:44;;;;;;;;;;;;;;;14.36;58.65;102707.59;1040809;28;958;-64
2023/04/04 00:44:35;;;;;;;;;;;;;;;14.36;58.50;102706.72;1045375;28;669;-64
2023/04/04 00:45:26;;;;;;;;;;;;;;;14.36;58.57;102712.97;1040980;28;1475;-64
2023/04/04 00:46:17;;;;;;;;;;;;;;;14.35;58.45;102705.88;1041534;28;1231;-64
2023/04/04 00:47:08;;;;;;;;;;;;;;;14.35;58.19;102713.91;1043124;28;1565;-64
2023/04/04 00:47:58;;;;;;;;;;;;;;;14.31;58.16;102714.16;1041711;28;680;-64
2023/04/04 00:48:50;;;;;;;;;;;;;;;14.28;59.04;102708.94;1043694;28;932;-64
2023/04/04 00:49:40;;;;;;;;;;;;;;;14.25;58.29;102713.53;1045296;28;1965;-64
2023/04/04 00:50:31;;;;;;;;;;;;;;;14.28;58.82;102712.50;1043256;28;1365;-64
2023/04/04 00:51:21;;;;;;;;;;;;;;;14.30;58.84;102709.75;1041077;28;660;-64
2023/04/04 00:52:12;;;;;;;;;;;;;;;14.32;58.32;102705.19;1042009;28;1312;-65
2023/04/04 00:53:02;;;;;;;;;;;;;;;14.32;58.79;102713.22;1042516;28;1453;-65
2023/04/04 00:53:53;;;;;;;;;;;;;;;14.30;58.38;102712.44;1043459;28;1559;-65
2023/04/04 00:54:43;;;;;;;;;;;;;;;14.24;58.86;102706.41;1043718;28;1462;-65
2023/04/04 00:55:34;;;;;;;;;;;;;;;14.21;58.97;102709.25;1041996;28;1392;-64
2023/04/04 00:56:24;;;;;;;;;;;;;;;14.26;58.95;102706.34;1044837;28;1489;-65
2023/04/04 00:57:15;;;;;;;;;;;;;;;14.30;58.63;102701.69;1040074;28;1599;-65
2023/04/04 00:58:06;;;;;;;;;;;;;;;14.31;58.93;102698.94;1040495;28;1305;-65
2023/04/04 00:58:56;;;;;;;;;;;;;;;14.30;58.88;102699.03;1043096;28;1480;-65
2023/04/04 00:59:47;;;;;;;;;;;;;;;14.30;58.96;102696.34;1044130;28;1386;-65
2023/04/04 01:00:37;;;;;;;;;;;;;;;14.31;58.42;102704.31;1043946;28;1526;-65
2023/04/04 01:01:30;;;;;;;;;;;;;;;14.30;58.47;102702.56;1039565;28;1388;-65
2023/04/04 01:02:20;;;;;;;;;;;;;;;14.29;58.93;102698.16;1044314;28;673;-65
2023/04/04 01:03:11;;;;;;;;;;;;;;;14.27;58.85;102700.03;1043508;28;669;-65
2023/04/04 01:04:02;;;;;;;;;;;;;;;14.29;59.07;102699.97;1041276;28;1285;-64
2023/04/04 01:04:52;;;;;;;;;;;;;;;14.29;59.02;102699.97;1042065;28;1471;-65
2023/04/04 01:05:43;;;;;;;;;;;;;;;14.27;58.91;102701.84;1041677;28;1400;-64
2023/04/04 01:06:33;;;;;;;;;;;;;;;14.24;58.50;102698.38;1040592;28;655;-65
2023/04/04 01:07:24;;;;;;;;;;;;;;;14.25;58.37;102700.13;1039740;28;2070;-64
2023/04/04 01:08:14;;;;;;;;;;;;;;;14.23;59.03;102699.31;1039486;28;694;-64
2023/04/04 01:09:05;;;;;;;;;;;;;;;14.22;59.01;102700.25;1040280;28;1175;-64
2023/04/04 01:09:55;;;;;;;;;;;;;;;14.22;58.61;102699.41;1041019;28;1906;-64
2023/04/04 01:10:45;;;;;;;;;;;;;;;14.19;58.64;102700.41;1036411;28;717;-64
2023/04/04 01:11:36;;;;;;;;;;;;;;;14.19;59.26;102697.72;1036837;28;1045;-64
2023/04/04 01:12:26;;;;;;;;;;;;;;;14.22;59.13;102702.94;1039557;28;684;-64
2023/04/04 01:13:17;;;;;;;;;;;;;;;14.22;59.40;102702.94;1036438;28;792;-65
2023/04/04 01:14:07;;;;;;;;;;;;;;;14.19;58.79;102700.41;1038161;28;1077;-64
2023/04/04 01:14:57;;;;;;;;;;;;;;;14.18;59.54;102698.69;1040804;28;649;-64
2023/04/04 01:15:48;;;;;;;;;;;;;;;14.20;58.80;102695.91;1036802;28;649;-64
2023/04/04 01:16:38;;;;;;;;;;;;;;;14.19;58.63;102694.19;1040155;28;669;-64
2023/04/04 01:17:29;;;;;;;;;;;;;;;14.18;59.36;102689.75;1036392;28;648;-65
2023/04/04 01:18:19;;;;;;;;;;;;;;;14.20;58.53;102686.06;1040879;28;1103;-65
2023/04/04 01:19:10;;;;;;;;;;;;;;;14.20;59.19;102694.09;1039855;28;815;-65
2023/04/04 01:20:00;;;;;;;;;;;;;;;14.18;58.84;102695.13;1035998;28;705;-65
2023/04/04 01:20:51;;;;;;;;;;;;;;;14.17;58.55;102688.91;1037066;28;647;-65
2023/04/04 01:21:41;;;;;;;;;;;;;;;14.15;59.30;102690.78;1037806;28;1218;-65
2023/04/04 01:22:32;;;;;;;;;;;;;;;14.11;59.31;102685.69;1037854;28;778;-65
2023/04/04 01:23:22;;;;;;;;;;;;;;;14.10;58.91;102689.31;1036081;28;731;-65
2023/04/04 01:24:13;;;;;;;;;;;;;;;14.06;59.01;102693.06;1039480;28;1127;-65
2023/04/04 01:25:03;;;;;;;;;;;;;;;14.09;59.06;102692.91;1040506;28;666;-65
2023/04/04 01:25:55;;;;;;;;;;;;;;;14.08;59.30;102693.88;1040315;28;1004;-65
2023/04/04 01:26:45;;;;;;;;;;;;;;;14.12;59.26;102699.00;1038918;28;666;-64
2023/04/04 01:27:36;;;;;;;;;;;;;;;14.11;58.70;102702.63;1044656;28;1074;-64
2023/04/04 01:28:26;;;;;;;;;;;;;;;14.10;59.51;102700.91;1036240;28;643;-64
2023/04/04 01:29:17;;;;;;;;;;;;;;;14.12;59.46;102695.47;1041069;28;641;-64
2023/04/04 01:30:07;;;;;;;;;;;;;;;14.14;58.68;102696.25;1040201;28;1951;-65
2023/04/04 01:30:58;;;;;;;;;;;;;;;14.14;58.95;102701.63;1039861;28;622;-64
2023/04/04 01:31:48;;;;;;;;;;;;;;;14.11;59.25;102699.94;1036455;28;705;-64
2023/04/04 01:32:38;;;;;;;;;;;;;;;14.09;59.00;102699.16;1040828;28;1099;-64
2023/04/04 01:33:29;;;;;;;;;;;;;;;14.09;59.39;102698.28;1039873;28;619;-64
2023/04/04 01:34:19;;;;;;;;;;;;;;;14.09;58.87;102695.59;1035976;28;649;-64
2023/04/04 01:35:10;;;;;;;;;;;;;;;14.09;59.63;102690.25;1036467;28;675;-65
2023/04/04 01:36:00;;;;;;;;;;;;;;;14.07;58.86;102694.81;1040430;28;1190;-65
2023/04/04 01:36:52;;;;;;;;;;;;;;;14.08;59.43;102707.28;1039285;28;1475;-65
2023/04/04 01:37:43;;;;;;;;;;;;;;;14.07;59.66;102708.22;1034591;28;733;-65
2023/04/04 01:38:33;;;;;;;;;;;;;;;14.07;58.73;102714.44;1037731;28;964;-65
2023/04/04 01:39:24;;;;;;;;;;;;;;;14.01;59.67;102712.06;1044159;28;1453;-65
2023/04/04 01:40:15;;;;;;;;;;;;;;;13.94;59.65;102713.31;1039350;28;1022;-65
2023/04/04 01:41:05;;;;;;;;;;;;;;;13.93;59.97;102714.25;1040669;28;630;-65
2023/04/04 01:41:56;;;;;;;;;;;;;;;13.92;59.29;102722.38;1040032;28;686;-64
2023/04/04 01:42:46;;;;;;;;;;;;;;;13.90;59.83;102709.06;1037502;28;1426;-64
2023/04/04 01:43:37;;;;;;;;;;;;;;;13.83;60.47;102712.97;1040118;28;747;-64
2023/04/04 01:44:27;;;;;;;;;;;;;;;13.82;60.23;102711.22;1040161;28;1110;-64
2023/04/04 01:45:18;;;;;;;;;;;;;;;13.84;60.42;102704.84;1036377;28;627;-64
2023/04/04 01:46:08;;;;;;;;;;;;;;;13.87;60.24;102706.50;1036954;28;1131;-64
2023/04/04 01:46:59;;;;;;;;;;;;;;;13.90;60.02;102707.25;1036343;28;1151;-64
2023/04/04 01:47:49;;;;;;;;;;;;;;;13.96;59.61;102705.22;1036364;28;670;-64
2023/04/04 01:48:40;;;;;;;;;;;;;;;13.98;59.76;102709.53;1036631;28;697;-65
2023/04/04 01:49:30;;;;;;;;;;;;;;;13.98;59.69;102705.97;1031396;28;1281;-64
2023/04/04 01:50:20;;;;;;;;;;;;;;;13.91;59.68;102702.75;1036570;28;669;-64
2023/04/04 01:51:11;;;;;;;;;;;;;;;13.93;59.89;102700.00;1039348;28;618;-64
2023/04/04 01:52:01;;;;;;;;;;;;;;;13.89;60.18;102697.47;1039631;28;1043;-64
2023/04/04 01:52:52;;;;;;;;;;;;;;;13.88;59.76;102701.09;1039895;28;683;-64
2023/04/04 01:53:43;;;;;;;;;;;;;;;13.89;59.63;102701.94;1036434;28;701;-65
2023/04/04 01:54:34;;;;;;;;;;;;;;;13.93;59.71;102698.19;1036542;28;1121;-65
2023/04/04 01:55:25;;;;;;;;;;;;;;;13.89;59.90;102697.47;1035271;28;643;-65
2023/04/04 01:56:15;;;;;;;;;;;;;;;13.89;59.54;102700.16;1037035;28;873;-65
2023/04/04 01:57:06;;;;;;;;;;;;;;;13.84;59.86;102698.63;1039561;28;1531;-65
2023/04/04 01:57:56;;;;;;;;;;;;;;;13.85;59.97;102695.00;1038876;28;729;-65
2023/04/04 01:58:47;;;;;;;;;;;;;;;13.84;59.88;102696.81;1041575;28;1143;-65
2023/04/04 01:59:37;;;;;;;;;;;;;;;13.88;59.80;102700.22;1038307;28;1324;-64
2023/04/04 02:00:28;;;;;;;;;;;;;;;13.88;60.16;102700.22;1036907;28;1148;-64
2023/04/04 02:01:18;;;;;;;;;;;;;;;13.89;59.69;102696.59;1037218;28;733;-65
2023/04/04 02:02:09;;;;;;;;;;;;;;;13.85;60.37;102695.00;1041475;28;1104;-65
2023/04/04 02:03:01;;;;;;;;;;;;;;;13.84;59.83;102698.63;1037061;28;674;-65
2023/04/04 02:03:51;;;;;;;;;;;;;;;13.85;60.24;102700.34;1037216;28;658;-65
2023/04/04 02:04:42;;;;;;;;;;;;;;;13.84;59.60;102695.94;1038903;28;1395;-65
2023/04/04 02:05:32;;;;;;;;;;;;;;;13.87;60.44;102696.66;1037642;28;748;-65
2023/04/04 02:06:23;;;;;;;;;;;;;;;13.84;59.83;102696.81;1040966;28;1283;-65
2023/04/04 02:07:13;;;;;;;;;;;;;;;13.91;60.10;102705.44;1037552;28;1159;-65
2023/04/04 02:08:04;;;;;;;;;;;;;;;13.90;60.10;102701.00;1041716;28;633;-65
2023/04/04 02:08:55;;;;;;;;;;;;;;;13.84;59.76;102698.63;1038170;28;1251;-65
2023/04/04 02:09:45;;;;;;;;;;;;;;;13.76;60.55;102707.06;1040421;28;1909;-65
2023/04/04 02:10:35;;;;;;;;;;;;;;;13.82;60.66;102705.88;1038166;28;679;-65
2023/04/04 02:11:26;;;;;;;;;;;;;;;13.87;59.77;102714.56;1041042;28;1226;-65
2023/04/04 02:12:16;;;;;;;;;;;;;;;13.86;60.25;102712.81;1040465;28;1464;-65
2023/04/04 02:13:07;;;;;;;;;;;;;;;13.92;59.66;102711.66;1040389;28;1165;-65
2023/04/04 02:13:57;;;;;;;;;;;;;;;13.90;59.40;102704.56;1040239;28;902;-65
2023/04/04 02:14:48;;;;;;;;;;;;;;;13.87;59.29;102714.56;1038518;28;1419;-65
2023/04/04 02:15:38;;;;;;;;;;;;;;;13.84;59.74;102709.34;1040151;28;755;-65
2023/04/04 02:16:29;;;;;;;;;;;;;;;13.87;60.07;102714.56;1041469;28;1183;-65
2023/04/04 02:17:19;;;;;;;;;;;;;;;13.81;59.39;102706.81;1039566;28;1084;-65
2023/04/04 02:18:10;;;;;;;;;;;;;;;13.81;59.81;102709.47;1040505;28;603;-65
2023/04/04 02:19:01;;;;;;;;;;;;;;;13.86;60.17;102712.81;1041129;28;637;-65
2023/04/04 02:19:51;;;;;;;;;;;;;;;13.87;59.93;102704.72;1038522;28;1435;-65
2023/04/04 02:20:42;;;;;;;;;;;;;;;13.83;59.76;102712.97;1038309;28;1134;-65
2023/04/04 02:21:32;;;;;;;;;;;;;;;13.81;59.55;102713.03;1040353;28;1474;-65
2023/04/04 02:22:23;;;;;;;;;;;;;;;13.87;59.56;102714.56;1039349;28;1432;-65
2023/04/04 02:23:13;;;;;;;;;;;;;;;13.87;59.62;102714.56;1041619;28;674;-65
2023/04/04 02:24:03;;;;;;;;;;;;;;;13.89;60.29;102715.34;1041039;28;1001;-65
2023/04/04 02:24:56;;;;;;;;;;;;;;;13.92;59.41;102709.84;1038759;28;1064;-65
2023/04/04 02:25:46;;;;;;;;;;;;;;;13.87;59.29;102710.06;1039567;28;1427;-65
2023/04/04 02:26:37;;;;;;;;;;;;;;;13.81;59.63;102717.53;1039806;28;1414;-65
2023/04/04 02:27:28;;;;;;;;;;;;;;;13.79;59.44;102711.41;1038515;28;1337;-65
2023/04/04 02:28:18;;;;;;;;;;;;;;;13.77;60.56;102711.47;1040584;28;757;-65
2023/04/04 02:29:09;;;;;;;;;;;;;;;13.80;59.99;102707.75;1041645;28;1345;-65
2023/04/04 02:29:59;;;;;;;;;;;;;;;13.69;60.65;102707.41;1039879;28;1957;-65
2023/04/04 02:30:50;;;;;;;;;;;;;;;13.66;60.60;102713.78;1040838;28;1201;-65
2023/04/04 02:31:40;;;;;;;;;;;;;;;13.67;60.00;102715.53;1040432;28;723;-65
2023/04/04 02:32:31;;;;;;;;;;;;;;;13.74;59.77;102706.25;1041008;28;1075;-65
2023/04/04 02:33:21;;;;;;;;;;;;;;;13.75;59.98;102708.00;1040359;28;1237;-65
2023/04/04 02:34:12;;;;;;;;;;;;;;;13.75;60.30;102704.44;1038668;28;1167;-65
2023/04/04 02:35:03;;;;;;;;;;;;;;;13.67;60.47;102707.47;1036968;28;1028;-65
2023/04/04 02:35:53;;;;;;;;;;;;;;;13.66;60.38;102700.38;1037086;28;682;-65
2023/04/04 02:36:44;;;;;;;;;;;;;;;13.71;59.77;102697.50;1036926;28;892;-64
2023/04/04 02:37:34;;;;;;;;;;;;;;;13.77;60.08;102689.16;1036426;28;646;-64
2023/04/04 02:38:25;;;;;;;;;;;;;;;13.78;59.87;102701.63;1037536;28;681;-64
2023/04/04 02:39:15;;;;;;;;;;;;;;;13.79;59.55;102693.47;1037614;28;647;-64
2023/04/04 02:40:06;;;;;;;;;;;;;;;13.76;60.26;102692.78;1040943;28;1170;-65
2023/04/04 02:40:56;;;;;;;;;;;;;;;13.78;59.72;102689.09;1041208;28;691;-65
2023/04/04 02:41:46;;;;;;;;;;;;;;;13.77;59.99;102684.69;1036832;28;725;-65
2023/04/04 02:42:37;;;;;;;;;;;;;;;13.76;59.43;102685.63;1038792;28;1132;-65
2023/04/04 02:43:27;;;;;;;;;;;;;;;13.73;60.40;102690.25;1040773;28;771;-65
2023/04/04 02:44:18;;;;;;;;;;;;;;;13.74;60.13;102686.63;1038997;28;1241;-65
2023/04/04 02:45:08;;;;;;;;;;;;;;;13.71;59.65;102695.69;1041042;28;1151;-65
2023/04/04 02:45:59;;;;;;;;;;;;;;;13.71;60.28;102692.13;1039576;28;679;-65
2023/04/04 02:46:49;;;;;;;;;;;;;;;13.72;60.34;102680.47;1041052;28;711;-65
2023/04/04 02:47:40;;;;;;;;;;;;;;;13.64;60.19;102688.88;1040464;28;670;-65
2023/04/04 02:48:30;;;;;;;;;;;;;;;13.62;60.53;102693.44;1041180;28;681;-65
2023/04/04 02:49:21;;;;;;;;;;;;;;;13.63;60.65;102691.63;1039554;28;1091;-65
2023/04/04 02:50:12;;;;;;;;;;;;;;;13.63;59.99;102688.94;1040288;28;1939;-65
2023/04/04 02:51:02;;;;;;;;;;;;;;;13.63;60.58;102686.25;1041396;28;1154;-64
2023/04/04 02:51:53;;;;;;;;;;;;;;;13.61;60.63;102680.13;1041015;28;709;-64
2023/04/04 02:52:44;;;;;;;;;;;;;;;13.61;60.53;102681.00;1039176;28;797;-65
2023/04/04 02:53:35;;;;;;;;;;;;;;;13.55;60.14;102682.16;1041526;28;1206;-65
2023/04/04 02:54:25;;;;;;;;;;;;;;;13.55;60.92;102681.28;1037392;28;992;-65
2023/04/04 02:55:16;;;;;;;;;;;;;;;13.58;60.16;102674.94;1033944;28;642;-65
2023/04/04 02:56:06;;;;;;;;;;;;;;;13.55;60.37;102683.97;1037232;28;657;-65
2023/04/04 02:56:57;;;;;;;;;;;;;;;13.57;60.73;102679.41;1041295;28;1124;-64
2023/04/04 02:57:47;;;;;;;;;;;;;;;13.63;60.65;102679.09;1040944;28;672;-64
2023/04/04 02:58:37;;;;;;;;;;;;;;;13.63;60.26;102684.44;1037943;28;657;-64
2023/04/04 02:59:28;;;;;;;;;;;;;;;13.60;59.94;102681.94;1041553;28;781;-64
2023/04/04 03:00:19;;;;;;;;;;;;;;;13.60;60.25;102678.41;1040800;28;1229;-65
2023/04/04 03:01:09;;;;;;;;;;;;;;;13.50;60.23;102678.81;1040969;28;1087;-65
2023/04/04 03:02:00;;;;;;;;;;;;;;;13.57;60.88;102675.88;1040558;28;753;-65
2023/04/04 03:02:50;;;;;;;;;;;;;;;13.63;60.38;102680.91;1040803;28;1127;-64
2023/04/04 03:03:41;;;;;;;;;;;;;;;13.52;60.16;102676.06;1040188;28;777;-64
2023/04/04 03:04:31;;;;;;;;;;;;;;;13.48;60.83;102686.06;1036836;28;686;-64
2023/04/04 03:05:22;;;;;;;;;;;;;;;13.45;60.66;102680.84;1037477;28;1068;-64
2023/04/04 03:06:13;;;;;;;;;;;;;;;13.43;60.10;102679.22;1043824;28;1369;-65
2023/04/04 03:07:04;;;;;;;;;;;;;;;13.41;60.19;102679.28;1045666;28;619;-64
2023/04/04 03:07:55;;;;;;;;;;;;;;;13.47;60.80;102680.78;1040911;28;638;-65
2023/04/04 03:08:46;;;;;;;;;;;;;;;13.49;60.71;102685.13;1040322;28;799;-64
2023/04/04 03:09:36;;;;;;;;;;;;;;;13.50;60.69;102678.81;1040191;28;1122;-65
2023/04/04 03:10:28;;;;;;;;;;;;;;;13.40;61.11;102682.03;1045590;28;713;-65
2023/04/04 03:11:20;;;;;;;;;;;;;;;13.44;60.58;102676.44;1044962;28;641;-66
2023/04/04 03:12:10;;;;;;;;;;;;;;;13.45;60.50;102683.53;1040915;28;684;-65
2023/04/04 03:13:00;;;;;;;;;;;;;;;13.43;60.97;102665.81;1042611;28;1152;-65
2023/04/04 03:13:52;;;;;;;;;;;;;;;13.39;61.07;102673.13;1041488;28;629;-65
2023/04/04 03:14:42;;;;;;;;;;;;;;;13.36;61.22;102683.97;1041756;28;951;-64
2023/04/04 03:15:34;;;;;;;;;;;;;;;13.34;61.11;102679.63;1045525;28;677;-65
2023/04/04 03:16:25;;;;;;;;;;;;;;;13.32;60.98;102685.06;1044472;28;665;-65
2023/04/04 03:17:17;;;;;;;;;;;;;;;13.30;60.75;102681.56;1044322;28;622;-65
2023/04/04 03:18:07;;;;;;;;;;;;;;;13.29;60.87;102678.97;1040713;28;1035;-65
2023/04/04 03:18:58;;;;;;;;;;;;;;;13.26;61.47;102679.97;1041567;28;634;-64
2023/04/04 03:19:48;;;;;;;;;;;;;;;13.26;61.05;102679.09;1041915;28;1343;-65
2023/04/04 03:20:38;;;;;;;;;;;;;;;13.27;61.37;102681.72;1041006;28;717;-64
2023/04/04 03:21:29;;;;;;;;;;;;;;;13.26;60.63;102679.09;1045477;28;653;-65
2023/04/04 03:22:19;;;;;;;;;;;;;;;13.24;61.46;102681.03;1043793;28;1162;-65
2023/04/04 03:23:10;;;;;;;;;;;;;;;13.29;61.31;102684.31;1041623;28;614;-65
2023/04/04 03:24:00;;;;;;;;;;;;;;;13.39;60.48;102685.66;1040853;28;1198;-65
2023/04/04 03:24:51;;;;;;;;;;;;;;;13.42;60.88;102678.34;1044797;28;1437;-65
2023/04/04 03:25:41;;;;;;;;;;;;;;;13.44;60.84;102676.44;1043297;28;1479;-65
2023/04/04 03:26:32;;;;;;;;;;;;;;;13.42;60.89;102674.78;1040821;28;657;-65
2023/04/04 03:27:22;;;;;;;;;;;;;;;13.31;60.74;102679.78;1042204;28;1437;-65
2023/04/04 03:28:13;;;;;;;;;;;;;;;13.26;61.14;102679.97;1041461;28;744;-65
2023/04/04 03:29:03;;;;;;;;;;;;;;;13.24;61.27;102676.53;1042441;28;892;-65
2023/04/04 03:29:54;;;;;;;;;;;;;;;13.22;61.40;102678.41;1043497;28;1893;-65
2023/04/04 03:30:44;;;;;;;;;;;;;;;13.15;61.03;102676.94;1042368;28;1168;-65
2023/04/04 03:31:35;;;;;;;;;;;;;;;13.17;61.53;102667.91;1044625;28;649;-65
2023/04/04 03:32:26;;;;;;;;;;;;;;;13.20;61.04;102674.94;1043696;28;1158;-65
2023/04/04 03:33:16;;;;;;;;;;;;;;;13.15;61.32;102674.28;1044810;28;1122;-65
2023/04/04 03:34:07;;;;;;;;;;;;;;;13.15;60.76;102677.81;1045555;28;686;-65
2023/04/04 03:34:57;;;;;;;;;;;;;;;13.15;61.60;102676.94;1044843;28;998;-64
2023/04/04 03:35:47;;;;;;;;;;;;;;;13.12;61.70;102671.69;1045059;28;658;-64
2023/04/04 03:36:38;;;;;;;;;;;;;;;13.10;61.86;102673.56;1043165;28;1163;-64
2023/04/04 03:37:28;;;;;;;;;;;;;;;13.15;61.53;102671.59;1044630;28;1391;-64
2023/04/04 03:38:19;;;;;;;;;;;;;;;13.12;61.09;102672.56;1040510;28;630;-64
2023/04/04 03:39:09;;;;;;;;;;;;;;;13.12;61.29;102674.38;1041869;28;625;-65
2023/04/04 03:40:00;;;;;;;;;;;;;;;13.11;61.71;102670.81;1041414;28;622;-65
2023/04/04 03:40:51;;;;;;;;;;;;;;;13.14;61.62;102669.81;1043930;28;1079;-65
2023/04/04 03:41:41;;;;;;;;;;;;;;;13.20;60.72;102672.25;1045116;28;1405;-65
2023/04/04 03:42:31;;;;;;;;;;;;;;;13.22;61.55;102669.50;1040429;28;1019;-65
2023/04/04 03:43:22;;;;;;;;;;;;;;;13.22;60.83;102669.50;1045394;28;687;-65
2023/04/04 03:44:12;;;;;;;;;;;;;;;13.18;60.91;102672.31;1044261;28;1179;-65
2023/04/04 03:45:03;;;;;;;;;;;;;;;13.13;61.09;102668.94;1045473;28;665;-65
2023/04/04 03:45:54;;;;;;;;;;;;;;;13.08;61.58;102672.78;1041388;28;654;-65
2023/04/04 03:46:44;;;;;;;;;;;;;;;13.14;61.72;102669.81;1041359;28;697;-65
2023/04/04 03:47:34;;;;;;;;;;;;;;;13.08;61.77;102675.44;1042424;28;1135;-65
2023/04/04 03:48:26;;;;;;;;;;;;;;;13.11;61.71;102670.81;1042294;28;1279;-65
2023/04/04 03:49:16;;;;;;;;;;;;;;;13.15;61.31;102682.31;1041474;28;626;-65
2023/04/04 03:50:06;;;;;;;;;;;;;;;13.14;61.55;102675.16;1044534;28;1890;-65
2023/04/04 03:50:57;;;;;;;;;;;;;;;13.13;61.84;102673.44;1044616;28;1007;-65
2023/04/04 03:51:47;;;;;;;;;;;;;;;13.11;61.52;102667.28;1045567;28;720;-65
2023/04/04 03:52:41;;;;;;;;;;;;;;;13.11;61.56;102676.19;1044629;28;1159;-65
2023/04/04 03:53:31;;;;;;;;;;;;;;;13.10;60.89;102673.56;1044272;28;688;-65
2023/04/04 03:54:21;;;;;;;;;;;;;;;13.11;61.28;102672.63;1045301;28;1134;-65
2023/04/04 03:55:12;;;;;;;;;;;;;;;13.02;61.87;102675.75;1044896;28;701;-65
2023/04/04 03:56:02;;;;;;;;;;;;;;;13.02;61.05;102675.75;1045182;28;1216;-65
2023/04/04 03:56:53;;;;;;;;;;;;;;;13.08;61.44;102680.81;1040668;28;791;-65
2023/04/04 03:57:43;;;;;;;;;;;;;;;13.07;61.69;102677.28;1040979;28;956;-65
2023/04/04 03:58:34;;;;;;;;;;;;;;;13.09;61.27;102675.38;1041877;28;677;-65
2023/04/04 03:59:24;;;;;;;;;;;;;;;13.11;61.43;102680.66;1041168;28;1322;-65
2023/04/04 04:00:15;;;;;;;;;;;;;;;13.12;60.94;102677.06;1040090;28;626;-64
2023/04/04 04:01:05;;;;;;;;;;;;;;;13.12;61.69;102672.56;1042345;28;1079;-64
2023/04/04 04:01:56;;;;;;;;;;;;;;;13.06;61.48;102672.88;1044119;28;610;-65
2023/04/04 04:02:46;;;;;;;;;;;;;;;13.06;61.58;102672.88;1043072;28;1288;-64
2023/04/04 04:03:37;;;;;;;;;;;;;;;13.09;61.87;102671.84;1044110;28;690;-64
2023/04/04 04:04:27;;;;;;;;;;;;;;;13.05;60.92;102671.13;1043751;28;1177;-65
2023/04/04 04:05:17;;;;;;;;;;;;;;;13.05;61.39;102675.63;1040834;28;673;-65
2023/04/04 04:06:08;;;;;;;;;;;;;;;13.02;61.83;102679.28;1043756;28;1025;-64
2023/04/04 04:06:58;;;;;;;;;;;;;;;13.06;61.47;102677.34;1045080;28;681;-64
2023/04/04 04:07:49;;;;;;;;;;;;;;;13.03;61.46;102682.84;1044746;28;1039;-64
2023/04/04 04:08:39;;;;;;;;;;;;;;;13.01;61.43;102680.22;1045127;28;1453;-64
2023/04/04 04:09:30;;;;;;;;;;;;;;;12.97;61.09;102683.13;1039864;28;1100;-64
2023/04/04 04:10:20;;;;;;;;;;;;;;;12.97;61.41;102677.75;1040198;28;702;-65
2023/04/04 04:11:11;;;;;;;;;;;;;;;12.93;61.61;102684.19;1044621;28;984;-64
2023/04/04 04:12:01;;;;;;;;;;;;;;;12.97;61.76;102688.47;1041429;28;709;-64
2023/04/04 04:12:52;;;;;;;;;;;;;;;12.97;62.00;102677.75;1040847;28;1061;-64
2023/04/04 04:13:42;;;;;;;;;;;;;;;12.96;61.19;102682.25;1040615;28;728;-64
2023/04/04 04:14:33;;;;;;;;;;;;;;;12.96;61.26;102676.03;1041286;28;670;-63
2023/04/04 04:15:23;;;;;;;;;;;;;;;13.02;61.71;102681.09;1041091;28;642;-64
2023/04/04 04:16:14;;;;;;;;;;;;;;;13.07;60.96;102684.44;1044602;28;1213;-63
2023/04/04 04:17:04;;;;;;;;;;;;;;;13.06;61.39;102674.69;1045356;28;665;-63
2023/04/04 04:17:55;;;;;;;;;;;;;;;13.08;61.54;102675.44;1044694;28;618;-63
2023/04/04 04:18:46;;;;;;;;;;;;;;;13.03;61.00;102682.84;1041801;28;686;-64
2023/04/04 04:19:36;;;;;;;;;;;;;;;13.03;61.65;102677.50;1043027;28;1453;-64
2023/04/04 04:20:27;;;;;;;;;;;;;;;13.01;61.93;102676.69;1042075;28;1220;-64
2023/04/04 04:21:17;;;;;;;;;;;;;;;12.96;61.58;102676.03;1043616;28;680;-65
2023/04/04 04:22:08;;;;;;;;;;;;;;;12.99;61.92;102683.91;1044288;28;708;-64
2023/04/04 04:22:58;;;;;;;;;;;;;;;12.95;60.91;102677.81;1044788;28;782;-64
2023/04/04 04:23:49;;;;;;;;;;;;;;;12.96;61.16;102676.03;1044704;28;1244;-64
2023/04/04 04:24:39;;;;;;;;;;;;;;;12.97;61.13;102678.63;1043915;28;1002;-64
2023/04/04 04:25:30;;;;;;;;;;;;;;;12.99;61.24;102675.88;1043776;28;693;-65